ESGS weather

Näsinge Airport
Strömstad, Västra Götalands län, Sweden

Public forecast

Using degrees Celsius for public forecast. Weather courtesy of forecast.io.

Closest aviation weather report (METAR) to Näsinge Airport

Closest report is Moss Airport, Rygge, 27.7 nm (51.3 km) NW. Retrieved 2020/06/02 08:20 UTC (41 minutes ago):

ENRY 020820Z 17003KT 080V250 CAVOK 21/11 Q1019 NOSIG

Closest aviation forecast (TAF) to Näsinge Airport

Forecast is more than 12 hours old.

Closest forecast is Moss Airport, Rygge, 27.7 nm (51.3 km) NW. Retrieved 2020/06/01 19:06 UTC (14 hours ago):

TAF TAF ENRY 011957Z 0119/0218 CNL